createdAt,value
2023-01-19T00:01:47.645Z,99068.00
2023-01-19T00:04:15.750Z,99073.72
2023-01-19T00:06:43.847Z,99075.38
2023-01-19T00:09:11.501Z,99077.44
2023-01-19T00:11:39.405Z,99075.38
2023-01-19T00:14:09.851Z,99077.81
2023-01-19T00:16:39.075Z,99075.41
2023-01-19T00:19:10.432Z,99080.19
2023-01-19T00:21:38.639Z,99084.72
2023-01-19T00:24:07.321Z,99084.47
2023-01-19T00:26:35.052Z,99084.25
2023-01-19T00:29:03.170Z,99080.41
2023-01-19T00:31:34.157Z,99084.25
2023-01-19T00:34:03.543Z,99085.47
2023-01-19T00:36:31.946Z,99086.66
2023-01-19T00:38:59.747Z,99085.94
2023-01-19T00:41:41.709Z,99085.75
2023-01-19T00:44:09.442Z,99091.50
2023-01-19T00:46:44.123Z,99100.63
2023-01-19T00:49:18.479Z,99101.13
2023-01-19T00:51:46.488Z,99095.72
2023-01-19T00:54:14.693Z,99102.44
2023-01-19T00:56:42.937Z,99095.66
2023-01-19T00:59:12.055Z,99103.81
2023-01-19T01:04:36.185Z,99096.69
2023-01-19T01:07:04.280Z,99096.69
2023-01-19T01:09:32.647Z,99095.16
2023-01-19T01:12:00.667Z,99105.06
2023-01-19T01:14:29.090Z,99096.38
2023-01-19T01:16:59.548Z,99101.66
2023-01-19T01:19:27.645Z,99107.31
2023-01-19T01:21:56.724Z,99097.38
2023-01-19T01:24:26.848Z,99092.91
2023-01-19T01:26:54.523Z,99103.06
2023-01-19T01:29:22.682Z,99107.31
2023-01-19T01:31:50.978Z,99105.88
2023-01-19T01:34:18.854Z,99105.47
2023-01-19T01:36:46.827Z,99103.16
2023-01-19T01:39:18.196Z,99103.72
2023-01-19T01:41:46.216Z,99098.84
2023-01-19T01:44:52.685Z,99089.81
2023-01-19T01:47:31.663Z,99100.84
2023-01-19T01:50:05.935Z,99094.59
2023-01-19T01:52:35.910Z,99097.22
2023-01-19T01:55:08.175Z,99093.56
2023-01-19T01:57:37.295Z,99090.78
2023-01-19T02:00:06.176Z,99086.53
2023-01-19T02:02:51.436Z,99086.13
2023-01-19T02:05:24.042Z,99082.44
2023-01-19T02:08:14.366Z,99089.00
2023-01-19T02:11:02.153Z,99091.25
2023-01-19T02:13:30.960Z,99082.47
2023-01-19T02:16:05.589Z,99081.47
2023-01-19T02:18:33.636Z,99083.72
2023-01-19T02:21:09.505Z,99082.09
2023-01-19T02:23:44.304Z,99084.19
2023-01-19T02:26:14.358Z,99082.38
2023-01-19T02:28:45.731Z,99093.97
2023-01-19T02:31:15.323Z,99091.34
2023-01-19T02:33:43.043Z,99094.66
2023-01-19T02:36:15.203Z,99090.38
2023-01-19T02:38:45.561Z,99091.41
2023-01-19T02:41:14.713Z,99086.53
2023-01-19T02:43:43.279Z,99084.25
2023-01-19T02:46:11.059Z,99087.13
2023-01-19T02:48:38.975Z,99084.47
2023-01-19T02:51:13.842Z,99091.94
2023-01-19T02:54:04.746Z,99091.47
2023-01-19T03:00:04.443Z,99080.47
2023-01-19T03:02:36.826Z,99085.47
2023-01-19T03:05:18.379Z,99078.50
2023-01-19T03:07:52.424Z,99082.53
2023-01-19T03:10:28.925Z,99074.59
2023-01-19T03:13:02.059Z,99070.59
2023-01-19T03:15:33.868Z,99064.66
2023-01-19T03:18:02.203Z,99064.28
2023-01-19T03:20:30.147Z,99063.06
2023-01-19T03:28:56.466Z,99054.75
2023-01-19T03:31:26.147Z,99056.00
2023-01-19T03:33:56.275Z,99059.69
2023-01-19T03:36:27.535Z,99051.97
2023-01-19T03:38:56.332Z,99060.69
2023-01-19T03:41:25.915Z,99054.44
2023-01-19T03:43:54.895Z,99056.66
2023-01-19T03:46:23.647Z,99052.22
2023-01-19T03:48:51.769Z,99050.59
2023-01-19T03:51:20.396Z,99047.41
2023-01-19T03:53:50.094Z,99046.97
2023-01-19T03:56:22.540Z,99050.66
2023-01-19T03:58:52.406Z,99049.84
2023-01-19T04:01:23.194Z,99048.00
2023-01-19T04:03:51.189Z,99048.00
2023-01-19T04:06:19.531Z,99056.34
2023-01-19T04:08:49.023Z,99053.53
2023-01-19T04:11:17.053Z,99056.41
2023-01-19T04:13:47.518Z,99052.72
2023-01-19T04:16:20.186Z,99053.75
2023-01-19T04:18:48.235Z,99045.63
2023-01-19T04:21:20.416Z,99045.84
2023-01-19T04:23:51.967Z,99050.50
2023-01-19T04:26:20.357Z,99047.00
2023-01-19T04:28:48.697Z,99038.81
2023-01-19T04:31:19.444Z,99050.47
2023-01-19T04:33:47.238Z,99040.66
2023-01-19T04:36:18.445Z,99046.28
2023-01-19T04:38:46.932Z,99047.03
2023-01-19T04:41:15.158Z,99047.84
2023-01-19T04:43:43.000Z,99036.47
2023-01-19T04:46:10.760Z,99032.84
2023-01-19T04:48:41.313Z,99033.22
2023-01-19T04:51:11.769Z,99033.44
2023-01-19T04:53:43.669Z,99021.81
2023-01-19T04:56:11.324Z,99034.75
2023-01-19T04:58:39.098Z,99031.91
2023-01-19T05:01:09.151Z,99026.59
2023-01-19T05:03:37.301Z,99035.50
2023-01-19T05:06:07.478Z,99027.97
2023-01-19T05:08:38.080Z,99033.66
2023-01-19T05:11:06.188Z,99026.94
2023-01-19T05:13:34.523Z,99030.94
2023-01-19T05:16:02.524Z,99033.78
2023-01-19T05:18:36.114Z,99028.06
2023-01-19T05:21:08.462Z,99023.16
2023-01-19T05:23:37.724Z,99023.97
2023-01-19T05:26:06.186Z,99016.91
2023-01-19T05:28:34.338Z,99019.53
2023-01-19T05:31:02.540Z,99018.91
2023-01-19T05:33:30.384Z,99034.09
2023-01-19T05:36:00.763Z,99015.81
2023-01-19T05:38:35.171Z,99031.88
2023-01-19T05:41:07.190Z,99029.25
2023-01-19T05:43:35.069Z,99039.41
2023-01-19T05:46:04.813Z,99034.53
2023-01-19T05:48:32.764Z,99032.50
2023-01-19T05:51:01.690Z,99035.78
2023-01-19T05:53:31.987Z,99025.25
2023-01-19T05:56:08.781Z,99029.88
2023-01-19T05:58:39.427Z,99037.25
2023-01-19T06:01:08.582Z,99030.78
2023-01-19T06:03:37.333Z,99024.06
2023-01-19T06:06:05.607Z,99032.97
2023-01-19T06:08:33.664Z,99034.16
2023-01-19T06:11:01.261Z,99028.88
2023-01-19T06:13:30.288Z,99039.41
2023-01-19T06:15:59.618Z,99032.91
2023-01-19T06:18:35.429Z,99040.00
2023-01-19T06:21:09.385Z,99043.44
2023-01-19T06:23:39.702Z,99052.56
2023-01-19T06:26:07.895Z,99057.63
2023-01-19T06:28:37.246Z,99057.38
2023-01-19T06:31:05.004Z,99052.28
2023-01-19T06:33:32.747Z,99046.56
2023-01-19T06:36:00.410Z,99058.25
2023-01-19T06:38:29.065Z,99054.22
2023-01-19T06:41:00.012Z,99056.66
2023-01-19T06:43:27.735Z,99044.50
2023-01-19T06:45:57.328Z,99050.59
2023-01-19T06:48:25.210Z,99053.66
2023-01-19T06:50:54.775Z,99049.84
2023-01-19T06:53:22.711Z,99053.50
2023-01-19T06:55:50.546Z,99045.19
2023-01-19T06:58:18.518Z,99050.47
2023-01-19T07:00:46.175Z,99055.97
2023-01-19T07:03:20.458Z,99057.00
2023-01-19T07:05:50.077Z,99058.81
2023-01-19T07:08:17.863Z,99068.78
2023-01-19T07:11:26.596Z,99077.88
2023-01-19T07:13:34.123Z,99087.59
2023-01-19T07:16:07.364Z,99092.88
2023-01-19T07:18:39.607Z,99088.00
2023-01-19T07:21:07.794Z,99107.06
2023-01-19T07:23:35.528Z,99105.44
2023-01-19T07:26:03.153Z,99121.25
2023-01-19T07:28:31.924Z,99120.25
2023-01-19T07:31:00.116Z,99119.88
2023-01-19T07:33:27.929Z,99131.03
2023-01-19T07:35:56.976Z,99135.94
2023-01-19T07:38:25.094Z,99145.72
2023-01-19T07:40:52.720Z,99153.47
2023-01-19T07:43:20.719Z,99163.25
2023-01-19T07:45:48.518Z,99164.44
2023-01-19T07:48:16.558Z,99162.44
2023-01-19T07:50:44.774Z,99169.34
2023-01-19T07:53:13.838Z,99180.41
2023-01-19T07:55:41.479Z,99181.03
2023-01-19T07:58:09.629Z,99187.84
2023-01-19T08:00:39.693Z,99189.81
2023-01-19T08:03:09.955Z,99201.28
2023-01-19T08:05:37.767Z,99205.72
2023-01-19T08:08:05.963Z,99205.41
2023-01-19T08:10:39.018Z,99208.66
2023-01-19T08:13:06.648Z,99216.84
2023-01-19T08:15:34.338Z,99230.72
2023-01-19T08:18:05.810Z,99222.63
2023-01-19T08:20:33.463Z,99226.78
2023-01-19T08:23:02.861Z,99223.13
2023-01-19T08:25:33.656Z,99226.41
2023-01-19T08:28:03.505Z,99233.91
2023-01-19T08:30:31.280Z,99240.59
2023-01-19T08:33:04.355Z,99238.19
2023-01-19T08:35:32.505Z,99237.47
2023-01-19T08:38:01.763Z,99250.41
2023-01-19T08:40:29.766Z,99246.81
2023-01-19T08:43:01.064Z,99253.72
2023-01-19T08:45:31.092Z,99246.25
2023-01-19T08:47:59.681Z,99257.81
2023-01-19T08:50:27.776Z,99259.06
2023-01-19T08:53:00.153Z,99264.34
2023-01-19T08:55:29.264Z,99260.69
2023-01-19T08:58:00.702Z,99274.13
2023-01-19T09:00:31.711Z,99283.88
2023-01-19T09:02:59.917Z,99293.50
2023-01-19T09:05:27.934Z,99295.25
2023-01-19T09:07:55.490Z,99298.53
2023-01-19T09:10:23.268Z,99301.38
2023-01-19T09:12:51.339Z,99298.53
2023-01-19T09:15:19.059Z,99303.25
2023-01-19T09:17:48.279Z,99307.09
2023-01-19T09:20:15.908Z,99315.00
2023-01-19T09:22:43.742Z,99321.28
2023-01-19T09:25:11.410Z,99326.56
2023-01-19T09:27:39.187Z,99318.06
2023-01-19T09:30:11.292Z,99325.31
2023-01-19T09:32:39.066Z,99330.59
2023-01-19T09:35:09.185Z,99344.34
2023-01-19T09:37:36.958Z,99337.97
2023-01-19T09:40:05.061Z,99345.44
2023-01-19T09:42:38.257Z,99343.25
2023-01-19T09:45:07.491Z,99357.06
2023-01-19T09:47:36.465Z,99351.22
2023-01-19T09:50:06.814Z,99362.03
2023-01-19T09:52:38.068Z,99359.47
2023-01-19T09:55:06.165Z,99363.16
2023-01-19T09:57:34.100Z,99369.84
2023-01-19T10:00:14.162Z,99374.38
2023-01-19T10:02:45.229Z,99372.78
2023-01-19T10:05:35.103Z,99379.94
2023-01-19T10:08:13.392Z,99385.16
2023-01-19T10:10:44.156Z,99391.72
2023-01-19T10:13:21.796Z,99401.94
2023-01-19T10:15:55.939Z,99405.97
2023-01-19T10:18:30.912Z,99409.69
2023-01-19T10:21:05.496Z,99419.91
2023-01-19T10:23:42.207Z,99425.19
2023-01-19T10:26:14.957Z,99430.19
2023-01-19T10:28:43.243Z,99426.00
2023-01-19T10:31:12.137Z,99438.75
2023-01-19T10:33:40.073Z,99436.97
2023-01-19T10:36:17.679Z,99441.38
2023-01-19T10:38:47.521Z,99452.59
2023-01-19T10:41:19.743Z,99461.13
2023-01-19T10:43:48.851Z,99462.03
2023-01-19T10:46:23.462Z,99464.13
2023-01-19T10:48:52.614Z,99468.66
2023-01-19T10:51:20.774Z,99471.31
2023-01-19T10:54:00.685Z,99461.44
2023-01-19T10:56:31.973Z,99464.16
2023-01-19T10:59:01.463Z,99468.88
2023-01-19T11:01:31.432Z,99466.69
2023-01-19T11:04:05.784Z,99475.00
2023-01-19T11:06:35.690Z,99470.00
2023-01-19T11:09:25.452Z,99481.41
2023-01-19T11:11:54.143Z,99476.59
2023-01-19T11:14:26.371Z,99468.22
2023-01-19T11:16:56.452Z,99467.50
2023-01-19T11:19:29.347Z,99479.00
2023-01-19T11:22:13.110Z,99468.78
2023-01-19T11:24:42.284Z,99476.53
2023-01-19T11:27:09.845Z,99478.34
2023-01-19T11:29:38.926Z,99486.81
2023-01-19T11:32:18.642Z,99478.91
2023-01-19T11:34:46.299Z,99490.13
2023-01-19T11:37:29.196Z,99488.78
2023-01-19T11:39:59.377Z,99494.53
2023-01-19T11:42:27.676Z,99481.91
2023-01-19T11:45:00.275Z,99481.88
2023-01-19T11:47:30.955Z,99482.28
2023-01-19T11:50:01.511Z,99483.56
2023-01-19T11:52:33.241Z,99486.81
2023-01-19T11:55:06.931Z,99490.94
2023-01-19T11:57:34.563Z,99491.75
2023-01-19T12:00:05.304Z,99484.09
2023-01-19T12:02:43.273Z,99496.50
2023-01-19T12:05:15.386Z,99491.84
2023-01-19T12:07:45.270Z,99498.88
2023-01-19T12:10:23.660Z,99491.81
2023-01-19T12:12:52.293Z,99498.03
2023-01-19T12:15:24.573Z,99496.38
2023-01-19T12:17:54.410Z,99496.84
2023-01-19T12:20:27.491Z,99505.44
2023-01-19T12:23:03.197Z,99504.06
2023-01-19T12:25:44.502Z,99499.38
2023-01-19T12:28:14.668Z,99502.59
2023-01-19T12:30:43.111Z,99504.63
2023-01-19T12:33:37.405Z,99513.19
2023-01-19T12:36:07.737Z,99522.03
2023-01-19T12:38:43.883Z,99518.41
2023-01-19T12:41:27.627Z,99529.84
2023-01-19T12:44:34.574Z,99535.34
2023-01-19T12:47:20.158Z,99532.34
2023-01-19T12:49:50.267Z,99539.44
2023-01-19T12:52:21.847Z,99536.97
2023-01-19T12:55:02.177Z,99528.38
2023-01-19T12:57:34.504Z,99530.41
2023-01-19T13:00:03.248Z,99537.06
2023-01-19T13:02:47.409Z,99534.81
2023-01-19T13:05:27.655Z,99537.75
2023-01-19T13:08:35.786Z,99541.47
2023-01-19T13:11:23.781Z,99546.72
2023-01-19T13:14:35.179Z,99543.00
2023-01-19T13:17:33.689Z,99545.94
2023-01-19T13:20:30.182Z,99555.94
2023-01-19T13:23:22.764Z,99559.34
2023-01-19T13:25:53.587Z,99550.84
2023-01-19T13:28:26.376Z,99554.72
2023-01-19T13:31:00.344Z,99556.16
2023-01-19T13:33:33.592Z,99556.09
2023-01-19T13:36:01.155Z,99565.25
2023-01-19T13:38:29.394Z,99562.47
2023-01-19T13:40:57.839Z,99561.84
2023-01-19T13:43:30.279Z,99567.31
2023-01-19T13:45:58.088Z,99571.47
2023-01-19T13:48:26.286Z,99571.00
2023-01-19T13:51:00.578Z,99574.81
2023-01-19T13:53:29.637Z,99570.81
2023-01-19T13:56:07.943Z,99574.84
2023-01-19T13:58:35.750Z,99581.97
2023-01-19T14:01:03.458Z,99592.19
2023-01-19T14:03:31.102Z,99590.06
2023-01-19T14:06:00.119Z,99595.72
2023-01-19T14:08:27.693Z,99588.47
2023-01-19T14:11:02.975Z,99599.69
2023-01-19T14:13:32.237Z,99596.84
2023-01-19T14:16:01.791Z,99599.91
2023-01-19T14:18:31.045Z,99597.81
2023-01-19T14:21:02.713Z,99607.53
2023-01-19T14:23:47.130Z,99610.81
2023-01-19T14:26:44.982Z,99617.47
2023-01-19T14:29:18.090Z,99620.19
2023-01-19T14:31:48.071Z,99616.09
2023-01-19T14:34:40.096Z,99623.44
2023-01-19T14:37:17.331Z,99615.59
2023-01-19T14:39:47.434Z,99624.44
2023-01-19T14:42:18.880Z,99630.41
2023-01-19T14:44:48.594Z,99624.41
2023-01-19T14:47:32.700Z,99631.38
2023-01-19T14:50:06.961Z,99630.03
2023-01-19T14:52:39.730Z,99643.34
2023-01-19T14:55:10.260Z,99644.34
2023-01-19T14:57:38.301Z,99638.38
2023-01-19T15:00:37.119Z,99634.72
2023-01-19T15:03:10.026Z,99641.00
2023-01-19T15:05:38.265Z,99639.88
2023-01-19T15:08:08.095Z,99638.41
2023-01-19T15:10:36.855Z,99638.69
2023-01-19T15:13:05.093Z,99636.50
2023-01-19T15:15:34.722Z,99625.69
2023-01-19T15:18:03.873Z,99631.44
2023-01-19T15:20:32.570Z,99637.56
2023-01-19T15:23:00.206Z,99633.75
2023-01-19T15:25:30.944Z,99638.50
2023-01-19T15:27:59.675Z,99639.63
2023-01-19T15:30:30.048Z,99647.38
2023-01-19T15:32:58.876Z,99642.91
2023-01-19T15:35:27.012Z,99652.91
2023-01-19T15:37:54.748Z,99654.94
2023-01-19T15:40:23.171Z,99664.31
2023-01-19T15:42:53.593Z,99667.22
2023-01-19T15:45:32.099Z,99671.75
2023-01-19T15:47:59.769Z,99659.81
2023-01-19T15:50:28.033Z,99672.13
2023-01-19T15:52:55.614Z,99673.47
2023-01-19T15:55:23.716Z,99675.50
2023-01-19T15:57:52.891Z,99677.25
2023-01-19T16:00:20.861Z,99680.72
2023-01-19T16:02:53.855Z,99680.09
2023-01-19T16:05:24.256Z,99681.44
2023-01-19T16:07:53.671Z,99680.81
2023-01-19T16:10:21.378Z,99683.53
2023-01-19T16:12:49.094Z,99690.91
2023-01-19T16:15:19.406Z,99693.47
2023-01-19T16:17:47.028Z,99695.50
2023-01-19T16:20:15.227Z,99693.38
2023-01-19T16:22:43.453Z,99696.13
2023-01-19T16:25:11.309Z,99690.56
2023-01-19T16:27:39.111Z,99696.47
2023-01-19T16:30:09.361Z,99697.19
2023-01-19T16:32:38.805Z,99705.19
2023-01-19T16:35:07.531Z,99707.53
2023-01-19T16:37:36.278Z,99710.03
2023-01-19T16:40:04.447Z,99705.19
2023-01-19T16:42:32.206Z,99710.66
2023-01-19T16:44:59.962Z,99703.22
2023-01-19T16:47:29.541Z,99706.03
2023-01-19T16:49:58.427Z,99711.41
2023-01-19T16:52:28.536Z,99711.03
2023-01-19T16:54:56.637Z,99711.97
2023-01-19T16:57:24.434Z,99711.59
2023-01-19T16:59:55.670Z,99723.44
2023-01-19T17:02:23.344Z,99725.91
2023-01-19T17:04:50.899Z,99729.38
2023-01-19T17:07:19.854Z,99731.81
2023-01-19T17:09:47.428Z,99729.91
2023-01-19T17:12:15.159Z,99742.84
2023-01-19T17:14:43.281Z,99742.38
2023-01-19T17:17:10.958Z,99742.72
2023-01-19T17:19:38.766Z,99743.09
2023-01-19T17:22:06.384Z,99742.09
2023-01-19T17:24:35.441Z,99743.53
2023-01-19T17:27:03.372Z,99748.00
2023-01-19T17:29:31.134Z,99749.38
2023-01-19T17:32:00.057Z,99754.19
2023-01-19T17:34:31.391Z,99758.00
2023-01-19T17:37:02.811Z,99747.00
2023-01-19T17:39:30.768Z,99758.16
2023-01-19T17:41:59.684Z,99764.66
2023-01-19T17:44:28.779Z,99764.72
2023-01-19T17:47:01.262Z,99760.03
2023-01-19T17:49:29.055Z,99769.16
2023-01-19T17:51:56.764Z,99765.66
2023-01-19T17:57:19.703Z,99773.41
2023-01-19T17:59:48.087Z,99779.38
2023-01-19T18:02:15.953Z,99776.59
2023-01-19T18:04:45.956Z,99775.03
2023-01-19T18:07:13.527Z,99777.66
2023-01-19T18:09:44.685Z,99780.84
2023-01-19T18:12:12.187Z,99776.59
2023-01-19T18:14:41.610Z,99787.59
2023-01-19T18:17:09.392Z,99786.31
2023-01-19T18:19:38.727Z,99783.97
2023-01-19T18:22:06.627Z,99789.25
2023-01-19T18:24:34.388Z,99796.00
2023-01-19T18:27:02.490Z,99792.34
2023-01-19T18:29:30.252Z,99792.22
2023-01-19T18:31:59.292Z,99793.22
2023-01-19T18:34:26.995Z,99796.16
2023-01-19T18:36:54.722Z,99803.72
2023-01-19T18:39:22.221Z,99800.09
2023-01-19T18:41:49.918Z,99808.38
2023-01-19T19:01:37.424Z,99823.56
2023-01-19T19:04:08.255Z,99829.47
2023-01-19T19:06:35.866Z,99830.31
2023-01-19T19:09:03.639Z,99829.47
2023-01-19T19:11:31.555Z,99831.13
2023-01-19T19:14:01.044Z,99835.75
2023-01-19T19:16:29.831Z,99835.94
2023-01-19T19:19:01.031Z,99835.44
2023-01-19T19:21:30.165Z,99839.09
2023-01-19T19:24:00.815Z,99842.38
2023-01-19T19:26:29.043Z,99843.06
2023-01-19T19:28:56.899Z,99842.75
2023-01-19T19:31:26.163Z,99840.47
2023-01-19T19:33:54.639Z,99837.53
2023-01-19T19:36:23.129Z,99847.09
2023-01-19T19:38:52.397Z,99841.50
2023-01-19T19:45:05.821Z,99845.88
2023-01-19T19:47:33.905Z,99854.66
2023-01-19T19:50:01.563Z,99850.09
2023-01-19T19:52:29.282Z,99845.97
2023-01-19T19:55:02.057Z,99848.97
2023-01-19T19:57:29.830Z,99846.34
2023-01-19T19:59:57.582Z,99848.03
2023-01-19T20:02:25.400Z,99857.28
2023-01-19T20:04:56.672Z,99855.81
2023-01-19T20:07:24.433Z,99856.78
2023-01-19T20:09:53.602Z,99857.13
2023-01-19T20:12:22.583Z,99854.97
2023-01-19T20:14:50.255Z,99861.91
2023-01-19T20:17:18.151Z,99852.03
2023-01-19T20:19:47.683Z,99866.88
2023-01-19T20:22:15.416Z,99873.59
2023-01-19T20:24:43.194Z,99868.19
2023-01-19T20:27:10.976Z,99874.44
2023-01-19T20:29:40.147Z,99873.78
2023-01-19T20:32:07.970Z,99873.78
2023-01-19T20:34:36.352Z,99880.34
2023-01-19T20:37:08.668Z,99877.53
2023-01-19T20:39:37.274Z,99881.84
2023-01-19T20:42:05.567Z,99892.06
2023-01-19T20:44:33.280Z,99881.00
2023-01-19T20:47:03.027Z,99889.41
2023-01-19T20:49:31.465Z,99897.00
2023-01-19T20:51:59.029Z,99894.50
2023-01-19T20:54:30.356Z,99900.59
2023-01-19T20:56:58.168Z,99896.50
2023-01-19T20:59:25.738Z,99905.03
2023-01-19T21:01:57.005Z,99901.44
2023-01-19T21:04:37.140Z,99907.03
2023-01-19T21:07:05.079Z,99904.72
2023-01-19T21:09:33.125Z,99907.69
2023-01-19T21:12:00.947Z,99902.75
2023-01-19T21:14:28.857Z,99912.63
2023-01-19T21:16:58.554Z,99924.31
2023-01-19T21:19:29.185Z,99924.81
2023-01-19T21:21:56.868Z,99918.88
2023-01-19T21:24:25.173Z,99925.16
2023-01-19T21:26:53.009Z,99928.75
2023-01-19T21:32:18.851Z,99929.91
2023-01-19T21:34:48.243Z,99935.69
2023-01-19T21:37:15.996Z,99939.78
2023-01-19T21:39:45.936Z,99941.94
2023-01-19T21:42:13.934Z,99947.69
2023-01-19T21:44:41.849Z,99949.81
2023-01-19T21:47:14.471Z,99950.13
2023-01-19T21:49:42.503Z,99949.66
2023-01-19T21:52:11.910Z,99953.41
2023-01-19T21:54:40.065Z,99957.22
2023-01-19T21:57:08.105Z,99959.34
2023-01-19T21:59:38.103Z,99962.28
2023-01-19T22:02:06.449Z,99964.94
2023-01-19T22:04:48.093Z,99960.34
2023-01-19T22:07:18.471Z,99964.44
2023-01-19T22:09:48.084Z,99974.97
2023-01-19T22:12:15.875Z,99974.47
2023-01-19T22:14:57.781Z,99970.16
2023-01-19T22:17:25.710Z,99982.19
2023-01-19T22:19:53.501Z,99978.72
2023-01-19T22:22:22.687Z,99983.03
2023-01-19T22:24:55.079Z,99982.72
2023-01-19T22:27:22.839Z,99979.38
2023-01-19T22:29:50.851Z,99969.84
2023-01-19T22:35:14.738Z,99980.22
2023-01-19T22:37:43.999Z,99989.63
2023-01-19T22:40:13.091Z,99987.63
2023-01-19T22:42:41.037Z,99994.56
2023-01-19T22:45:14.223Z,99985.66
2023-01-19T22:47:42.326Z,99990.94
2023-01-19T22:50:10.750Z,99998.84
2023-01-19T22:52:38.391Z,99997.53
2023-01-19T22:55:08.293Z,100003.00
2023-01-19T22:57:40.155Z,100012.72
2023-01-19T23:00:09.240Z,100017.84
2023-01-19T23:02:37.214Z,100013.75
2023-01-19T23:05:05.906Z,100015.03
2023-01-19T23:07:34.610Z,100019.00
2023-01-19T23:10:02.373Z,100020.31
2023-01-19T23:12:31.480Z,100017.34
2023-01-19T23:14:59.772Z,100018.50
2023-01-19T23:17:32.812Z,100023.78
2023-01-19T23:20:00.459Z,100017.22
2023-01-19T23:22:28.242Z,100019.19
2023-01-19T23:24:56.181Z,100024.94
2023-01-19T23:27:25.013Z,100020.34
2023-01-19T23:29:54.205Z,100022.16
2023-01-19T23:32:21.972Z,100030.06
2023-01-19T23:34:50.894Z,100027.09
2023-01-19T23:37:18.425Z,100030.41
2023-01-19T23:39:46.408Z,100036.50
2023-01-19T23:42:14.139Z,100037.81
2023-01-19T23:44:43.857Z,100047.38
2023-01-19T23:47:13.023Z,100037.81
2023-01-19T23:49:40.787Z,100041.75
2023-01-19T23:52:08.572Z,100050.34
2023-01-19T23:54:36.720Z,100042.59
2023-01-19T23:57:04.535Z,100059.91
2023-01-19T23:59:32.469Z,100061.56
